createdAt,value
2018-06-23T00:00:49.920Z,13.80
2018-06-23T00:03:19.464Z,13.70
2018-06-23T00:05:48.948Z,13.70
2018-06-23T00:08:18.717Z,13.70
2018-06-23T00:10:48.388Z,13.60
2018-06-23T00:13:17.967Z,13.40
2018-06-23T00:15:47.644Z,13.50
2018-06-23T00:18:17.384Z,13.40
2018-06-23T00:20:46.866Z,13.50
2018-06-23T00:23:16.564Z,13.40
2018-06-23T00:25:51.704Z,13.40
2018-06-23T00:28:21.447Z,13.30
2018-06-23T00:30:50.933Z,13.30
2018-06-23T00:33:20.668Z,13.30
2018-06-23T00:35:50.424Z,13.30
2018-06-23T00:38:20.421Z,13.30
2018-06-23T00:40:50.027Z,13.40
2018-06-23T00:43:19.679Z,13.40
2018-06-23T00:45:49.149Z,13.40
2018-06-23T00:48:19.174Z,13.20
2018-06-23T00:50:48.821Z,13.10
2018-06-23T00:53:18.487Z,13.20
2018-06-23T00:55:48.458Z,13.10
2018-06-23T00:58:18.277Z,13.20
2018-06-23T01:00:47.888Z,13.30
2018-06-23T01:03:17.307Z,13.20
2018-06-23T01:05:46.706Z,13.30
2018-06-23T01:08:16.100Z,13.30
2018-06-23T01:10:45.746Z,13.30
2018-06-23T01:13:15.415Z,13.20
2018-06-23T01:15:45.100Z,13.20
2018-06-23T01:18:14.722Z,13.20
2018-06-23T01:20:44.104Z,13.10
2018-06-23T01:23:13.750Z,13.20
2018-06-23T01:25:43.120Z,13.20
2018-06-23T01:28:12.692Z,13.20
2018-06-23T01:30:42.062Z,13.20
2018-06-23T01:33:11.749Z,13.20
2018-06-23T01:35:41.441Z,13.20
2018-06-23T01:38:10.809Z,13.30
2018-06-23T01:40:40.490Z,13.20
2018-06-23T01:43:10.128Z,13.10
2018-06-23T01:45:39.811Z,13.10
2018-06-23T01:48:09.139Z,13.10
2018-06-23T01:50:38.514Z,13.10
2018-06-23T01:53:08.166Z,13.10
2018-06-23T01:55:38.447Z,13.10
2018-06-23T01:58:08.123Z,13.10
2018-06-23T02:03:07.069Z,13.10
2018-06-23T02:05:36.762Z,13.10
2018-06-23T02:08:07.134Z,13.10
2018-06-23T02:10:37.085Z,13.10
2018-06-23T02:13:06.758Z,13.10
2018-06-23T02:15:41.969Z,13.00
2018-06-23T02:18:16.780Z,13.10
2018-06-23T02:20:51.833Z,13.10
2018-06-23T02:23:26.831Z,13.10
2018-06-23T02:27:05.235Z,13.20
2018-06-23T02:29:40.629Z,13.10
2018-06-23T02:32:15.628Z,13.10
2018-06-23T02:34:50.903Z,13.00
2018-06-23T02:37:20.511Z,13.10
2018-06-23T02:39:50.222Z,13.10
2018-06-23T02:42:20.240Z,13.10
2018-06-23T02:44:49.660Z,13.10
2018-06-23T02:47:19.388Z,13.00
2018-06-23T02:49:49.087Z,13.00
2018-06-23T02:52:18.427Z,13.10
2018-06-23T02:54:48.076Z,13.00
2018-06-23T02:57:17.568Z,12.90
2018-06-23T02:59:47.263Z,12.80
2018-06-23T03:02:16.613Z,12.90
2018-06-23T03:04:46.270Z,12.90
2018-06-23T03:07:16.295Z,12.90
2018-06-23T03:09:46.093Z,12.90
2018-06-23T03:12:15.913Z,12.80
2018-06-23T03:14:45.626Z,12.70
2018-06-23T03:17:15.372Z,12.70
2018-06-23T03:19:47.485Z,12.60
2018-06-23T03:22:17.629Z,12.60
2018-06-23T03:24:47.304Z,12.60
2018-06-23T03:27:17.459Z,12.60
2018-06-23T03:29:46.822Z,12.50
2018-06-23T03:32:16.479Z,12.60
2018-06-23T03:34:46.102Z,12.70
2018-06-23T03:37:15.725Z,12.70
2018-06-23T03:39:45.428Z,12.70
2018-06-23T03:42:15.139Z,12.70
2018-06-23T03:44:44.827Z,12.70
2018-06-23T03:47:14.157Z,12.70
2018-06-23T03:49:43.831Z,12.60
2018-06-23T03:52:13.562Z,12.70
2018-06-23T03:54:43.174Z,12.70
2018-06-23T03:57:12.698Z,12.70
2018-06-23T03:59:42.340Z,12.70
2018-06-23T04:02:11.672Z,12.70
2018-06-23T04:04:41.748Z,12.70
2018-06-23T04:07:11.367Z,12.60
2018-06-23T04:09:41.062Z,12.60
2018-06-23T04:12:10.417Z,12.60
2018-06-23T04:14:40.320Z,12.70
2018-06-23T04:17:09.992Z,12.80
2018-06-23T04:19:39.644Z,12.80
2018-06-23T04:22:09.299Z,12.90
2018-06-23T04:24:38.971Z,12.90
2018-06-23T04:27:08.544Z,12.90
2018-06-23T04:29:38.205Z,12.90
2018-06-23T04:32:07.876Z,12.80
2018-06-23T04:34:37.556Z,12.70
2018-06-23T04:37:06.930Z,12.80
2018-06-23T04:39:36.228Z,12.80
2018-06-23T04:42:05.575Z,12.80
2018-06-23T04:44:35.291Z,12.70
2018-06-23T04:47:05.315Z,12.70
2018-06-23T04:49:34.699Z,12.70
2018-06-23T04:52:04.670Z,12.70
2018-06-23T04:54:34.714Z,12.70
2018-06-23T04:57:04.716Z,12.70
2018-06-23T04:59:34.354Z,12.80
2018-06-23T05:02:04.033Z,12.80
2018-06-23T05:04:33.663Z,12.90
2018-06-23T05:07:03.419Z,13.00
2018-06-23T05:09:33.036Z,13.00
2018-06-23T05:12:02.469Z,13.00
2018-06-23T05:14:32.050Z,12.90
2018-06-23T05:17:01.636Z,12.80
2018-06-23T05:19:31.615Z,12.90
2018-06-23T05:22:01.299Z,12.90
2018-06-23T05:24:30.693Z,13.10
2018-06-23T05:27:00.333Z,13.10
2018-06-23T05:29:30.013Z,13.40
2018-06-23T05:31:59.948Z,13.20
2018-06-23T05:34:29.365Z,13.20
2018-06-23T05:36:59.371Z,13.30
2018-06-23T05:39:29.119Z,13.20
2018-06-23T05:41:58.820Z,13.30
2018-06-23T05:44:28.548Z,13.30
2018-06-23T05:46:58.520Z,13.40
2018-06-23T05:49:27.853Z,13.40
2018-06-23T05:51:57.271Z,13.70
2018-06-23T05:54:27.227Z,13.70
2018-06-23T05:56:57.244Z,13.80
2018-06-23T05:59:26.976Z,14.00
2018-06-23T06:01:56.644Z,14.20
2018-06-23T06:04:26.311Z,14.00
2018-06-23T06:06:56.308Z,13.90
2018-06-23T06:09:26.084Z,13.80
2018-06-23T06:11:55.781Z,13.60
2018-06-23T06:14:25.168Z,13.60
2018-06-23T06:17:30.041Z,13.70
2018-06-23T06:20:02.582Z,13.60
2018-06-23T06:22:34.481Z,13.60
2018-06-23T06:25:04.165Z,13.60
2018-06-23T06:27:33.832Z,13.70
2018-06-23T06:30:04.613Z,13.80
2018-06-23T06:32:34.289Z,13.80
2018-06-23T06:35:03.807Z,13.90
2018-06-23T06:37:33.478Z,13.90
2018-06-23T06:40:03.203Z,13.90
2018-06-23T06:42:32.826Z,14.10
2018-06-23T06:45:03.116Z,14.20
2018-06-23T06:47:33.104Z,14.20
2018-06-23T06:50:03.091Z,14.20
2018-06-23T06:52:33.082Z,14.20
2018-06-23T06:55:02.959Z,14.00
2018-06-23T06:57:32.352Z,13.80
2018-06-23T07:00:01.684Z,13.80
2018-06-23T07:02:31.361Z,13.90
2018-06-23T07:05:00.997Z,13.60
2018-06-23T07:07:30.271Z,13.30
2018-06-23T07:10:00.200Z,13.20
2018-06-23T07:12:29.852Z,12.90
2018-06-23T07:14:59.669Z,12.80
2018-06-23T07:17:29.115Z,12.70
2018-06-23T07:19:58.844Z,12.80
2018-06-23T07:22:28.316Z,12.60
2018-06-23T07:24:57.729Z,12.70
2018-06-23T07:27:27.693Z,12.80
2018-06-23T07:29:57.078Z,12.90
2018-06-23T07:32:26.514Z,13.10
2018-06-23T07:34:56.450Z,13.20
2018-06-23T07:37:26.242Z,13.30
2018-06-23T07:39:56.478Z,13.40
2018-06-23T07:42:26.179Z,13.70
2018-06-23T07:44:55.803Z,13.70
2018-06-23T07:47:25.418Z,13.90
2018-06-23T07:49:55.116Z,13.70
2018-06-23T07:52:24.764Z,14.00
2018-06-23T07:54:54.236Z,14.10
2018-06-23T07:57:24.176Z,14.30
2018-06-23T07:59:53.555Z,14.50
2018-06-23T08:02:23.295Z,14.90
2018-06-23T08:04:53.361Z,15.20
2018-06-23T08:07:22.939Z,14.90
2018-06-23T08:09:52.602Z,14.80
2018-06-23T08:12:23.018Z,14.80
2018-06-23T08:14:52.704Z,14.70
2018-06-23T08:17:22.403Z,14.60
2018-06-23T08:19:52.152Z,14.50
2018-06-23T08:22:21.860Z,14.60
2018-06-23T08:24:51.973Z,14.50
2018-06-23T08:27:21.471Z,14.30
2018-06-23T08:29:51.536Z,14.40
2018-06-23T08:32:21.122Z,14.40
2018-06-23T08:34:50.734Z,14.40
2018-06-23T08:37:20.257Z,14.40
2018-06-23T08:39:50.325Z,14.30
2018-06-23T08:42:19.994Z,14.10
2018-06-23T08:44:49.803Z,14.30
2018-06-23T08:47:19.977Z,14.40
2018-06-23T08:49:49.878Z,14.60
2018-06-23T08:52:21.097Z,14.30
2018-06-23T08:54:51.211Z,14.20
2018-06-23T08:57:20.956Z,14.30
2018-06-23T08:59:50.871Z,14.40
2018-06-23T09:02:20.563Z,14.70
2018-06-23T09:04:50.535Z,15.00
2018-06-23T09:07:20.300Z,15.10
2018-06-23T09:09:50.376Z,15.50
2018-06-23T09:12:20.121Z,15.80
2018-06-23T09:14:49.589Z,16.00
2018-06-23T09:17:19.502Z,16.40
2018-06-23T09:19:49.029Z,16.60
2018-06-23T09:22:18.450Z,17.00
2018-06-23T09:24:47.824Z,17.20
2018-06-23T09:27:17.454Z,17.10
2018-06-23T09:29:46.876Z,17.10
2018-06-23T09:32:16.230Z,16.90
2018-06-23T09:37:14.902Z,16.90
2018-06-23T09:39:43.977Z,17.20
2018-06-23T09:42:13.215Z,17.60
2018-06-23T09:44:42.641Z,17.60
2018-06-23T09:47:12.492Z,17.30
2018-06-23T09:49:42.295Z,17.40
2018-06-23T09:52:11.788Z,17.40
2018-06-23T09:54:41.060Z,17.40
2018-06-23T09:57:10.463Z,16.90
2018-06-23T09:59:40.167Z,16.70
2018-06-23T10:04:38.976Z,16.90
2018-06-23T10:07:08.877Z,16.80
2018-06-23T10:09:38.463Z,16.80
2018-06-23T10:12:08.173Z,16.60
2018-06-23T10:14:37.563Z,16.60
2018-06-23T10:17:07.179Z,16.60
2018-06-23T10:19:36.615Z,16.60
2018-06-23T10:22:06.000Z,16.70
2018-06-23T10:24:35.450Z,16.80
2018-06-23T10:27:05.538Z,17.10
2018-06-23T10:29:35.020Z,17.70
2018-06-23T10:32:04.422Z,18.10
2018-06-23T10:34:34.011Z,18.90
2018-06-23T10:37:03.298Z,19.40
2018-06-23T10:39:32.787Z,19.60
2018-06-23T10:44:31.708Z,19.50
2018-06-23T10:47:02.787Z,19.90
2018-06-23T10:49:32.298Z,19.90
2018-06-23T10:52:01.680Z,19.60
2018-06-23T10:54:31.511Z,19.30
2018-06-23T10:57:01.660Z,19.40
2018-06-23T11:02:00.216Z,19.60
2018-06-23T11:04:29.634Z,19.70
2018-06-23T11:06:59.328Z,19.90
2018-06-23T11:09:29.463Z,20.00
2018-06-23T11:11:58.948Z,20.40
2018-06-23T11:14:28.665Z,20.90
2018-06-23T11:16:58.400Z,20.60
2018-06-23T11:19:27.744Z,20.20
2018-06-23T11:21:57.438Z,20.20
2018-06-23T11:24:27.071Z,20.20
2018-06-23T11:26:56.712Z,20.00
2018-06-23T11:29:26.384Z,19.80
2018-06-23T11:31:56.479Z,19.40
2018-06-23T11:34:25.854Z,19.30
2018-06-23T11:36:55.248Z,19.40
2018-06-23T11:39:25.344Z,19.60
2018-06-23T11:41:54.748Z,20.20
2018-06-23T11:44:24.846Z,21.00
2018-06-23T11:46:54.540Z,22.20
2018-06-23T11:49:23.907Z,22.70
2018-06-23T11:51:53.629Z,22.10
2018-06-23T11:54:23.055Z,21.60
2018-06-23T11:56:52.798Z,20.90
2018-06-23T11:59:22.520Z,20.60
2018-06-23T12:01:51.885Z,20.30
2018-06-23T12:04:25.004Z,20.00
2018-06-23T12:06:54.962Z,20.20
2018-06-23T12:09:24.844Z,20.00
2018-06-23T12:11:54.538Z,19.80
2018-06-23T12:14:23.991Z,20.40
2018-06-23T12:16:54.173Z,22.00
2018-06-23T12:19:23.845Z,23.40
2018-06-23T12:21:53.271Z,24.20
2018-06-23T12:24:22.741Z,23.50
2018-06-23T12:26:52.123Z,22.00
2018-06-23T12:29:21.494Z,22.80
2018-06-23T12:31:50.927Z,23.10
2018-06-23T12:34:20.979Z,22.40
2018-06-23T12:36:50.918Z,22.40
2018-06-23T12:39:20.335Z,22.80
2018-06-23T12:41:49.758Z,22.30
2018-06-23T12:44:19.676Z,21.30
2018-06-23T12:46:49.192Z,21.10
2018-06-23T12:49:18.374Z,22.10
2018-06-23T12:51:48.100Z,23.10
2018-06-23T12:54:17.607Z,23.70
2018-06-23T12:56:47.469Z,24.80
2018-06-23T12:59:16.872Z,24.60
2018-06-23T13:01:46.280Z,24.00
2018-06-23T13:04:15.692Z,23.00
2018-06-23T13:06:45.055Z,21.70
2018-06-23T13:09:14.526Z,21.40
2018-06-23T13:11:44.293Z,21.30
2018-06-23T13:14:13.670Z,20.80
2018-06-23T13:16:43.022Z,20.70
2018-06-23T13:19:12.411Z,20.20
2018-06-23T13:21:42.109Z,19.80
2018-06-23T13:24:11.818Z,19.60
2018-06-23T13:29:10.524Z,18.30
2018-06-23T13:31:40.242Z,18.10
2018-06-23T13:34:09.548Z,17.70
2018-06-23T13:36:38.903Z,17.10
2018-06-23T13:39:09.955Z,16.80
2018-06-23T13:41:39.039Z,16.80
2018-06-23T13:44:08.411Z,17.00
2018-06-23T13:46:38.116Z,17.30
2018-06-23T13:49:07.467Z,17.20
2018-06-23T13:51:36.807Z,17.30
2018-06-23T13:54:06.492Z,17.40
2018-06-23T13:56:36.282Z,17.50
2018-06-23T13:59:05.969Z,17.70
2018-06-23T14:01:35.994Z,18.00
2018-06-23T14:04:05.943Z,18.60
2018-06-23T14:06:35.877Z,19.50
2018-06-23T14:09:08.630Z,19.70
2018-06-23T14:11:38.689Z,19.50
2018-06-23T14:14:08.844Z,19.10
2018-06-23T14:16:38.829Z,18.90
2018-06-23T14:19:08.541Z,19.00
2018-06-23T14:21:37.953Z,19.30
2018-06-23T14:24:07.795Z,19.50
2018-06-23T14:26:37.265Z,19.20
2018-06-23T14:29:06.688Z,19.00
2018-06-23T14:31:36.213Z,18.60
2018-06-23T14:34:06.090Z,18.20
2018-06-23T14:36:35.507Z,18.10
2018-06-23T14:39:08.009Z,18.00
2018-06-23T14:41:37.432Z,17.90
2018-06-23T14:44:07.135Z,18.10
2018-06-23T14:46:37.027Z,18.10
2018-06-23T14:49:06.446Z,18.30
2018-06-23T14:51:35.800Z,18.40
2018-06-23T14:54:05.637Z,18.30
2018-06-23T14:56:35.375Z,18.30
2018-06-23T14:59:05.155Z,18.20
2018-06-23T15:01:34.893Z,18.30
2018-06-23T15:04:04.387Z,18.20
2018-06-23T15:06:33.749Z,18.20
2018-06-23T15:11:49.192Z,17.40
2018-06-23T15:14:18.800Z,16.80
2018-06-23T15:16:48.686Z,16.30
2018-06-23T15:19:18.421Z,16.00
2018-06-23T15:21:48.058Z,15.80
2018-06-23T15:24:17.795Z,15.70
2018-06-23T15:26:47.475Z,15.60
2018-06-23T15:29:17.200Z,15.60
2018-06-23T15:31:47.086Z,15.60
2018-06-23T15:34:16.741Z,15.50
2018-06-23T15:36:46.384Z,15.20
2018-06-23T15:39:16.042Z,14.90
2018-06-23T15:41:46.080Z,14.80
2018-06-23T15:44:15.857Z,14.60
2018-06-23T15:46:45.560Z,14.70
2018-06-23T15:49:15.219Z,14.60
2018-06-23T15:51:45.169Z,14.50
2018-06-23T15:54:14.838Z,14.40
2018-06-23T15:56:44.512Z,14.40
2018-06-23T15:59:14.173Z,14.60
2018-06-23T16:01:43.973Z,14.60
2018-06-23T16:04:13.664Z,14.80
2018-06-23T16:06:43.270Z,14.80
2018-06-23T16:09:13.700Z,14.90
2018-06-23T16:11:43.348Z,14.90
2018-06-23T16:14:13.322Z,15.10
2018-06-23T16:16:43.324Z,15.20
2018-06-23T16:19:13.078Z,15.30
2018-06-23T16:21:42.732Z,15.50
2018-06-23T16:24:12.377Z,15.70
2018-06-23T16:26:42.668Z,16.00
2018-06-23T16:29:14.119Z,16.20
2018-06-23T16:31:43.857Z,16.40
2018-06-23T16:34:13.566Z,16.40
2018-06-23T16:36:43.471Z,16.30
2018-06-23T16:39:13.418Z,16.40
2018-06-23T16:41:42.991Z,16.50
2018-06-23T16:44:12.994Z,16.40
2018-06-23T16:46:42.939Z,16.30
2018-06-23T16:49:12.647Z,16.20
2018-06-23T16:51:42.543Z,16.20
2018-06-23T16:54:12.728Z,16.20
2018-06-23T16:56:42.230Z,16.10
2018-06-23T16:59:12.116Z,16.10
2018-06-23T17:01:41.781Z,16.10
2018-06-23T17:04:11.817Z,16.10
2018-06-23T17:06:41.624Z,16.10
2018-06-23T17:09:11.354Z,16.00
2018-06-23T17:11:41.987Z,15.90
2018-06-23T17:14:11.584Z,15.70
2018-06-23T17:16:41.265Z,15.70
2018-06-23T17:19:11.250Z,15.60
2018-06-23T17:21:40.844Z,15.70
2018-06-23T17:24:10.624Z,15.70
2018-06-23T17:26:40.240Z,15.80
2018-06-23T17:29:10.253Z,15.70
2018-06-23T17:31:40.237Z,15.80
2018-06-23T17:34:09.923Z,15.80
2018-06-23T17:36:39.603Z,15.80
2018-06-23T17:41:40.196Z,15.50
2018-06-23T17:44:10.280Z,15.50
2018-06-23T17:46:39.955Z,15.50
2018-06-23T17:49:09.661Z,15.40
2018-06-23T17:51:39.436Z,15.30
2018-06-23T17:54:09.278Z,15.30
2018-06-23T17:56:39.184Z,15.30
2018-06-23T17:59:08.865Z,15.40
2018-06-23T18:01:38.770Z,15.30
2018-06-23T18:04:08.775Z,15.30
2018-06-23T18:06:38.625Z,15.20
2018-06-23T18:09:09.780Z,15.20
2018-06-23T18:11:40.185Z,15.10
2018-06-23T18:14:10.649Z,15.20
2018-06-23T18:16:40.749Z,15.10
2018-06-23T18:21:40.612Z,14.90
2018-06-23T18:24:10.763Z,14.80
2018-06-23T18:26:40.381Z,14.80
2018-06-23T18:29:10.087Z,14.80
2018-06-23T18:31:40.122Z,14.90
2018-06-23T18:34:09.925Z,14.80
2018-06-23T18:36:39.565Z,14.80
2018-06-23T18:39:10.678Z,14.70
2018-06-23T18:41:40.623Z,14.70
2018-06-23T18:44:10.272Z,14.70
2018-06-23T18:46:39.970Z,14.60
2018-06-23T18:49:09.582Z,14.50
2018-06-23T18:51:39.785Z,14.50
2018-06-23T18:54:09.653Z,14.50
2018-06-23T18:56:39.841Z,14.50
2018-06-23T18:59:09.753Z,14.50
2018-06-23T19:01:39.812Z,14.60
2018-06-23T19:04:10.588Z,14.50
2018-06-23T19:06:40.220Z,14.40
2018-06-23T19:09:11.181Z,14.30
2018-06-23T19:11:41.212Z,14.30
2018-06-23T19:14:11.113Z,14.30
2018-06-23T19:16:40.831Z,14.30
2018-06-23T19:19:10.959Z,14.30
2018-06-23T19:21:40.667Z,14.30
2018-06-23T19:24:10.411Z,14.20
2018-06-23T19:26:40.257Z,14.10
2018-06-23T19:29:09.910Z,14.00
2018-06-23T19:31:39.606Z,13.90
2018-06-23T19:34:09.256Z,13.90
2018-06-23T19:36:39.354Z,13.90
2018-06-23T19:39:09.994Z,13.90
2018-06-23T19:41:39.706Z,13.80
2018-06-23T19:44:09.356Z,13.80
2018-06-23T19:46:39.216Z,13.70
2018-06-23T19:49:09.377Z,13.70
2018-06-23T19:51:39.088Z,13.70
2018-06-23T19:54:08.826Z,13.70
2018-06-23T19:56:38.656Z,13.60
2018-06-23T19:59:08.843Z,13.60
2018-06-23T20:01:38.795Z,13.60
2018-06-23T20:04:08.580Z,13.40
2018-06-23T20:06:38.554Z,13.40
2018-06-23T20:09:09.147Z,13.40
2018-06-23T20:11:39.516Z,13.40
2018-06-23T20:14:09.362Z,13.30
2018-06-23T20:16:39.095Z,13.40
2018-06-23T20:19:09.326Z,13.30
2018-06-23T20:21:39.440Z,13.30
2018-06-23T20:24:09.524Z,13.30
2018-06-23T20:26:39.606Z,13.20
2018-06-23T20:29:09.268Z,13.20
2018-06-23T20:31:38.974Z,13.20
2018-06-23T20:34:08.614Z,13.20
2018-06-23T20:36:38.127Z,13.10
2018-06-23T20:39:08.629Z,13.10
2018-06-23T20:41:38.723Z,13.20
2018-06-23T20:44:08.682Z,13.20
2018-06-23T20:46:38.388Z,13.20
2018-06-23T20:49:08.104Z,13.10
2018-06-23T20:51:37.822Z,13.10
2018-06-23T20:54:07.507Z,13.20
2018-06-23T20:56:37.136Z,13.20
2018-06-23T20:59:07.460Z,13.20
2018-06-23T21:01:37.121Z,13.10
2018-06-23T21:04:07.043Z,13.10
2018-06-23T21:06:36.688Z,13.10
2018-06-23T21:09:08.616Z,13.10
2018-06-23T21:11:38.332Z,13.00
2018-06-23T21:14:08.080Z,13.00
2018-06-23T21:16:37.763Z,13.00
2018-06-23T21:19:07.395Z,13.00
2018-06-23T21:21:37.241Z,13.10
2018-06-23T21:24:07.004Z,13.10
2018-06-23T21:26:36.720Z,13.00
2018-06-23T21:29:06.392Z,13.00
2018-06-23T21:31:36.433Z,13.00
2018-06-23T21:34:06.531Z,13.00
2018-06-23T21:36:36.303Z,13.00
2018-06-23T21:39:07.217Z,13.00
2018-06-23T21:41:36.837Z,13.00
2018-06-23T21:44:06.877Z,13.00
2018-06-23T21:46:36.662Z,13.00
2018-06-23T21:49:06.827Z,13.10
2018-06-23T21:51:36.568Z,13.10
2018-06-23T21:54:06.425Z,13.10
2018-06-23T21:56:36.293Z,13.10
2018-06-23T21:59:06.019Z,13.10
2018-06-23T22:01:37.186Z,13.10
2018-06-23T22:04:06.988Z,13.10
2018-06-23T22:06:36.617Z,13.10
2018-06-23T22:09:08.061Z,13.10
2018-06-23T22:11:37.738Z,13.00
2018-06-23T22:14:07.791Z,13.00
2018-06-23T22:16:37.542Z,13.00
2018-06-23T22:19:07.312Z,12.90
2018-06-23T22:21:37.395Z,12.90
2018-06-23T22:24:06.756Z,12.90
2018-06-23T22:26:36.718Z,12.90
2018-06-23T22:29:06.197Z,13.00
2018-06-23T22:31:35.920Z,13.00
2018-06-23T22:34:06.205Z,13.00
2018-06-23T22:36:35.904Z,13.10
2018-06-23T22:39:07.637Z,13.10
2018-06-23T22:41:37.308Z,13.10
2018-06-23T22:44:07.105Z,13.00
2018-06-23T22:46:37.174Z,13.00
2018-06-23T22:49:06.856Z,13.00
2018-06-23T22:51:36.594Z,13.00
2018-06-23T22:54:06.294Z,13.00
2018-06-23T22:56:36.022Z,13.00
2018-06-23T22:59:05.883Z,13.00
2018-06-23T23:01:35.620Z,13.00
2018-06-23T23:04:05.477Z,13.00
2018-06-23T23:06:35.152Z,13.10
2018-06-23T23:11:35.814Z,13.00
2018-06-23T23:14:06.163Z,12.90
2018-06-23T23:16:36.284Z,13.00
2018-06-23T23:19:06.636Z,13.00
2018-06-23T23:21:36.293Z,13.00
2018-06-23T23:24:05.987Z,13.00
2018-06-23T23:26:35.874Z,13.00
2018-06-23T23:29:05.968Z,13.10
2018-06-23T23:31:35.974Z,13.10
2018-06-23T23:34:05.842Z,13.10
2018-06-23T23:36:36.236Z,13.10
2018-06-23T23:39:09.199Z,13.00
2018-06-23T23:41:39.017Z,13.00
2018-06-23T23:44:08.688Z,13.00
2018-06-23T23:46:38.361Z,13.00
2018-06-23T23:49:08.098Z,13.00
2018-06-23T23:54:07.006Z,13.00
2018-06-23T23:56:36.766Z,13.00
2018-06-23T23:59:06.465Z,13.00
